The Hangar Logo

METARs in Plain English
Latest METAR information for EGVN - BRIZE NORTON

EGVN 311050Z 24007KT 9999 FEW030 BKN050 21/14 Q1014 NOSIG

In plain english is....

This is a METAR report for EGVN - BRIZE NORTON .
The report was made 36 minutes ago, at 10:50 UTC.
The wind was blowing at a speed of 7 knots (8.1 miles per hour, 3.6 metres per second) from the West/Southwest (240°).
The visibility was greater than 6.2 miles (greater than 10 kilometres).
There were a few clouds at a height of 3000 feet (914 metres) and broken clouds at a height of 5000 feet (1524 metres).
The temperature was 21°C (70°F), a dew point of 14°C (57°F) and a relative humidity of 64.3%.
The altimeter setting (airfield QNH) was 1,014 hPa (29.94 inHg).
Other remarks NOSIG.

UK Mainland

Ireland

Channel Islands

France

Other



Enter
Tel: 07092 887559 - Fax: 07092 183262

Terms of Use | Privacy Statement
Content copyright © 1999-2012 TheHangar.co.uk. All rights reserved.
Please send your questions, comments, or bug reports to the Webmaster.